Terminal Aerodrome Forecast
Issued by NWS

Home | Current Version | Previous Version | Text Only | Print | Product List | Glossary On
Versions: 1 2 3 4 5 6 7 8 9 10 11 12 13 14 15 16 17 18 19 20 21 22 23 24 25 26 27 28 29 30 31 32 33
000
FTUS41 KAKQ 231206 AAA
TAFPHF
TAF AMD
KPHF 231206Z 2312/2412 06005KT 6SM -RA SCT007 OVC014
      TEMPO 2312/2315 4SM -RA BKN007
     FM231500 08009KT 3SM RA OVC007
     FM240000 05010KT 4SM -SHRA OVC006=

USA.gov is the U.S. government's official web portal to all federal, state and local government web resources and services.